Hlavní strana
METAR-TAF:

METAR-TAF

Letiště :

Niamey, Niger

zeměpisná šířka: 13-29N, zeměpisná délka: 002-10E, výška: 223 m

Aktuální stav počasí

Zpráva byla vytvořena před 1 hodinou a 5 minutami, v 21:00 UTC
Jihojihozápadní vítr 5 kt
Teplota 31°C
Vlhkost vzduchu 59%
Tlak 1011 hPa
Viditelnost 10 km a více
Žádná oblačnost pod 1500 m, nevyskytují se cumulonimby.

METAR: DRRN 182100Z 20005KT CAVOK 31/22 Q1011 NOSIG

Čas: 23:05 (22:05 UTC)

Předpověď počasí

Zpráva byla vytvořena před 5 hodinami a 5 minutami, v 17:00 UTC
Předpověď platná od 18 v 18 UTC do 19 v 24 UTC
Jižní vítr 6 kt
Viditelnost: 8000 m
Skoro jasno ve výšce 2000 ft
Pravděpodobnost 30% :
Dočasný
od 19 v 15 UTC do 19 v 20 UTC
Skoro jasno ve výšce 3000 ft
bouřka

TAF: DRRN 181700Z 1818/1924 18006KT 8000 FEW020 PROB30 TEMPO 1915/1920 TS FEW030 CB

Stav a předpovědi počasí z více než 4 000 letišť (zprávy METAR a TAF).

Červené a žluté tečky na mapě představují dostupné meteorologické stanice.

Když kurzor umístíte na tečku, zobrazí se název stanice.

Pak kliknutím zobrazíte stav a předpověď počasí.

Chcete-li změnit mapu, kliknutím na zelené tlačítko se znaménkem +mapu přiblížíte, kliknutím na zelené tlačítko se znaménkem – mapu oddálíte a kliknutím na zelené šipky přejdete na sousední mapy.


METAR-TAF: